createdAt,value
2018-09-01T00:00:42.810Z,102030.56
2018-09-01T00:03:10.871Z,102030.02
2018-09-01T00:05:38.960Z,102032.58
2018-09-01T00:08:07.182Z,102029.65
2018-09-01T00:10:35.263Z,102036.73
2018-09-01T00:13:03.349Z,102030.81
2018-09-01T00:15:31.431Z,102031.03
2018-09-01T00:17:59.710Z,102030.45
2018-09-01T00:20:27.794Z,102031.16
2018-09-01T00:22:55.854Z,102031.75
2018-09-01T00:25:23.955Z,102027.98
2018-09-01T00:27:52.026Z,102033.36
2018-09-01T00:30:20.086Z,102030.45
2018-09-01T00:32:48.178Z,102031.52
2018-09-01T00:35:16.250Z,102032.67
2018-09-01T00:37:49.687Z,102033.34
2018-09-01T00:40:17.780Z,102028.73
2018-09-01T00:42:45.918Z,102034.63
2018-09-01T00:45:14.147Z,102029.16
2018-09-01T00:47:42.211Z,102034.09
2018-09-01T00:50:10.278Z,102034.63
2018-09-01T00:52:38.395Z,102035.98
2018-09-01T00:55:10.653Z,102033.91
2018-09-01T00:57:38.720Z,102033.98
2018-09-01T01:00:06.818Z,102033.66
2018-09-01T01:02:34.886Z,102037.83
2018-09-01T01:05:02.968Z,102035.34
2018-09-01T01:07:31.033Z,102033.87
2018-09-01T01:09:59.106Z,102038.85
2018-09-01T01:12:27.336Z,102039.46
2018-09-01T01:14:55.391Z,102039.13
2018-09-01T01:17:23.475Z,102037.05
2018-09-01T01:19:51.721Z,102034.56
2018-09-01T01:22:19.820Z,102034.31
2018-09-01T01:24:47.932Z,102027.00
2018-09-01T01:27:16.013Z,102036.68
2018-09-01T01:29:44.108Z,102033.81
2018-09-01T01:32:12.225Z,102036.19
2018-09-01T01:34:40.278Z,102040.63
2018-09-01T01:37:08.375Z,102040.86
2018-09-01T01:39:36.512Z,102040.13
2018-09-01T01:42:04.957Z,102041.14
2018-09-01T01:44:33.055Z,102041.26
2018-09-01T01:47:01.150Z,102040.03
2018-09-01T01:49:29.251Z,102037.49
2018-09-01T01:51:57.336Z,102045.78
2018-09-01T01:54:25.439Z,102037.61
2018-09-01T01:56:53.523Z,102040.05
2018-09-01T01:59:21.605Z,102036.66
2018-09-01T02:01:49.672Z,102039.80
2018-09-01T02:04:17.797Z,102042.93
2018-09-01T02:06:45.916Z,102044.39
2018-09-01T02:09:13.994Z,102042.31
2018-09-01T02:11:42.049Z,102039.77
2018-09-01T02:14:10.160Z,102042.45
2018-09-01T02:16:38.217Z,102045.89
2018-09-01T02:19:06.575Z,102050.37
2018-09-01T02:21:34.649Z,102046.56
2018-09-01T02:24:02.727Z,102054.92
2018-09-01T02:26:30.835Z,102047.61
2018-09-01T02:28:58.886Z,102058.66
2018-09-01T02:31:26.950Z,102055.33
2018-09-01T02:33:55.257Z,102054.14
2018-09-01T02:36:23.330Z,102058.58
2018-09-01T02:38:51.428Z,102060.81
2018-09-01T02:41:19.743Z,102061.34
2018-09-01T02:43:47.820Z,102055.27
2018-09-01T02:46:15.916Z,102057.80
2018-09-01T02:48:44.147Z,102059.63
2018-09-01T02:51:12.211Z,102061.86
2018-09-01T02:53:40.286Z,102057.09
2018-09-01T02:56:08.362Z,102063.27
2018-09-01T02:58:36.590Z,102061.70
2018-09-01T03:01:09.899Z,102059.62
2018-09-01T03:03:38.026Z,102055.36
2018-09-01T03:06:06.090Z,102062.11
2018-09-01T03:08:34.209Z,102061.70
2018-09-01T03:11:03.126Z,102061.77
2018-09-01T03:13:31.182Z,102062.73
2018-09-01T03:15:59.243Z,102063.40
2018-09-01T03:18:27.358Z,102056.34
2018-09-01T03:20:55.461Z,102067.60
2018-09-01T03:23:23.567Z,102062.90
2018-09-01T03:25:51.643Z,102056.00
2018-09-01T03:28:20.722Z,102059.92
2018-09-01T03:30:48.815Z,102055.55
2018-09-01T03:33:16.887Z,102056.00
2018-09-01T03:35:44.958Z,102059.50
2018-09-01T03:38:13.035Z,102058.69
2018-09-01T03:40:41.170Z,102064.00
2018-09-01T03:43:09.293Z,102058.97
2018-09-01T03:45:37.370Z,102053.03
2018-09-01T03:48:05.461Z,102058.77
2018-09-01T03:50:33.533Z,102058.39
2018-09-01T03:53:01.591Z,102057.26
2018-09-01T03:55:29.702Z,102059.94
2018-09-01T03:57:57.768Z,102058.81
2018-09-01T04:00:27.200Z,102058.53
2018-09-01T04:02:55.918Z,102067.31
2018-09-01T04:05:23.998Z,102065.23
2018-09-01T04:07:52.072Z,102068.34
2018-09-01T04:10:20.157Z,102069.66
2018-09-01T04:12:48.338Z,102070.58
2018-09-01T04:15:16.456Z,102072.84
2018-09-01T04:17:44.522Z,102077.20
2018-09-01T04:20:12.735Z,102071.19
2018-09-01T04:22:40.808Z,102071.33
2018-09-01T04:25:08.879Z,102080.89
2018-09-01T04:27:37.102Z,102076.27
2018-09-01T04:30:05.715Z,102076.36
2018-09-01T04:32:34.061Z,102072.59
2018-09-01T04:35:02.154Z,102073.61
2018-09-01T04:37:30.278Z,102076.22
2018-09-01T04:39:58.346Z,102080.16
2018-09-01T04:42:26.443Z,102080.58
2018-09-01T04:44:54.524Z,102082.33
2018-09-01T04:47:22.577Z,102076.73
2018-09-01T04:49:50.693Z,102087.53
2018-09-01T04:52:18.757Z,102089.62
2018-09-01T04:54:46.855Z,102093.54
2018-09-01T04:57:16.002Z,102087.53
2018-09-01T04:59:44.145Z,102094.97
2018-09-01T05:02:12.397Z,102093.70
2018-09-01T05:04:40.471Z,102108.89
2018-09-01T05:07:08.551Z,102109.69
2018-09-01T05:09:36.638Z,102111.05
2018-09-01T05:12:05.045Z,102115.03
2018-09-01T05:14:33.123Z,102112.14
2018-09-01T05:17:01.583Z,102115.60
2018-09-01T05:19:29.667Z,102120.81
2018-09-01T05:21:57.867Z,102124.82
2018-09-01T05:24:25.947Z,102126.63
2018-09-01T05:26:54.017Z,102125.39
2018-09-01T05:29:22.111Z,102130.61
2018-09-01T05:31:50.180Z,102132.29
2018-09-01T05:34:25.247Z,102134.80
2018-09-01T05:36:53.314Z,102134.80
2018-09-01T05:39:21.422Z,102133.88
2018-09-01T05:41:49.767Z,102135.97
2018-09-01T05:44:17.827Z,102130.25
2018-09-01T05:46:45.910Z,102129.36
2018-09-01T05:49:14.249Z,102129.23
2018-09-01T05:51:42.299Z,102132.05
2018-09-01T05:54:10.368Z,102136.25
2018-09-01T05:56:38.468Z,102135.70
2018-09-01T05:59:07.548Z,102139.03
2018-09-01T06:01:35.631Z,102142.78
2018-09-01T06:04:04.177Z,102147.80
2018-09-01T06:06:32.256Z,102151.16
2018-09-01T06:09:00.366Z,102158.85
2018-09-01T06:11:28.507Z,102162.16
2018-09-01T06:13:56.588Z,102156.29
2018-09-01T06:16:24.931Z,102155.67
2018-09-01T06:18:53.012Z,102165.87
2018-09-01T06:21:21.121Z,102168.24
2018-09-01T06:23:49.257Z,102169.31
2018-09-01T06:26:17.290Z,102169.10
2018-09-01T06:28:49.723Z,102172.33
2018-09-01T06:31:18.791Z,102177.20
2018-09-01T06:33:47.542Z,102176.95
2018-09-01T06:36:15.891Z,102185.33
2018-09-01T06:38:44.007Z,102192.33
2018-09-01T06:41:13.115Z,102190.97
2018-09-01T06:43:41.643Z,102194.86
2018-09-01T06:46:09.744Z,102197.48
2018-09-01T06:48:37.821Z,102197.41
2018-09-01T06:51:06.151Z,102200.02
2018-09-01T06:53:34.257Z,102203.90
2018-09-01T06:56:02.338Z,102206.80
2018-09-01T06:58:30.438Z,102210.59
2018-09-01T07:01:04.555Z,102205.08
2018-09-01T07:03:32.710Z,102207.23
2018-09-01T07:06:00.782Z,102212.72
2018-09-01T07:08:29.115Z,102207.22
2018-09-01T07:10:57.213Z,102212.87
2018-09-01T07:13:31.154Z,102215.02
2018-09-01T07:15:59.242Z,102213.47
2018-09-01T07:18:27.318Z,102220.53
2018-09-01T07:20:55.602Z,102218.23
2018-09-01T07:23:23.714Z,102223.78
2018-09-01T07:25:51.815Z,102220.22
2018-09-01T07:28:19.904Z,102221.70
2018-09-01T07:30:48.239Z,102229.10
2018-09-01T07:33:16.126Z,102235.95
2018-09-01T07:35:44.239Z,102231.66
2018-09-01T07:38:12.318Z,102232.38
2018-09-01T07:40:40.414Z,102227.39
2018-09-01T07:43:08.520Z,102230.66
2018-09-01T07:45:36.606Z,102233.62
2018-09-01T07:48:04.962Z,102234.45
2018-09-01T07:50:33.059Z,102233.44
2018-09-01T07:53:01.158Z,102235.50
2018-09-01T07:55:29.251Z,102230.52
2018-09-01T07:57:57.332Z,102231.20
2018-09-01T08:00:25.447Z,102240.16
2018-09-01T08:02:53.538Z,102241.87
2018-09-01T08:05:21.621Z,102245.02
2018-09-01T08:07:49.739Z,102245.01
2018-09-01T08:10:18.028Z,102254.16
2018-09-01T08:12:46.366Z,102251.25
2018-09-01T08:15:14.462Z,102256.10
2018-09-01T08:17:42.530Z,102255.72
2018-09-01T08:20:10.627Z,102256.81
2018-09-01T08:22:38.687Z,102258.91
2018-09-01T08:25:07.087Z,102262.62
2018-09-01T08:27:35.375Z,102259.30
2018-09-01T08:30:03.458Z,102258.25
2018-09-01T08:32:31.528Z,102254.95
2018-09-01T08:34:59.763Z,102250.86
2018-09-01T08:37:27.860Z,102250.77
2018-09-01T08:39:55.983Z,102253.66
2018-09-01T08:42:24.098Z,102242.20
2018-09-01T08:44:52.201Z,102253.16
2018-09-01T08:47:20.583Z,102251.02
2018-09-01T08:49:48.853Z,102256.30
2018-09-01T08:52:16.962Z,102257.51
2018-09-01T08:54:45.031Z,102262.81
2018-09-01T08:57:13.118Z,102270.48
2018-09-01T08:59:41.194Z,102266.91
2018-09-01T09:02:09.273Z,102272.81
2018-09-01T09:04:37.499Z,102271.97
2018-09-01T09:07:05.760Z,102271.83
2018-09-01T09:09:33.839Z,102269.78
2018-09-01T09:12:01.912Z,102272.02
2018-09-01T09:14:30.022Z,102260.16
2018-09-01T09:16:58.339Z,102268.26
2018-09-01T09:19:26.441Z,102259.31
2018-09-01T09:21:54.626Z,102258.84
2018-09-01T09:24:22.748Z,102264.02
2018-09-01T09:26:50.975Z,102275.35
2018-09-01T09:29:19.060Z,102278.19
2018-09-01T09:31:47.134Z,102283.36
2018-09-01T09:34:15.240Z,102278.32
2018-09-01T09:36:43.294Z,102277.29
2018-09-01T09:39:11.607Z,102272.59
2018-09-01T09:41:40.035Z,102273.38
2018-09-01T09:44:08.198Z,102271.17
2018-09-01T09:46:36.575Z,102275.81
2018-09-01T09:49:04.739Z,102283.55
2018-09-01T09:51:32.880Z,102280.98
2018-09-01T09:54:01.066Z,102278.14
2018-09-01T09:56:29.138Z,102279.69
2018-09-01T09:58:57.207Z,102283.66
2018-09-01T10:01:33.447Z,102281.21
2018-09-01T10:04:01.672Z,102280.79
2018-09-01T10:06:29.843Z,102279.20
2018-09-01T10:08:57.954Z,102284.38
2018-09-01T10:11:26.021Z,102281.34
2018-09-01T10:13:54.074Z,102280.14
2018-09-01T10:16:22.178Z,102279.88
2018-09-01T10:18:50.278Z,102289.43
2018-09-01T10:21:18.335Z,102282.29
2018-09-01T10:23:46.390Z,102274.35
2018-09-01T10:26:14.546Z,102277.17
2018-09-01T10:28:42.586Z,102270.00
2018-09-01T10:31:10.699Z,102276.75
2018-09-01T10:33:38.760Z,102275.14
2018-09-01T10:36:06.820Z,102284.58
2018-09-01T10:38:35.143Z,102267.91
2018-09-01T10:41:03.168Z,102265.58
2018-09-01T10:43:31.356Z,102271.75
2018-09-01T10:45:59.415Z,102271.34
2018-09-01T10:48:27.487Z,102268.24
2018-09-01T10:50:55.556Z,102263.70
2018-09-01T10:53:23.603Z,102269.64
2018-09-01T10:55:51.670Z,102265.31
2018-09-01T10:58:19.746Z,102267.22
2018-09-01T11:00:47.853Z,102265.39
2018-09-01T11:03:15.964Z,102265.02
2018-09-01T11:05:44.036Z,102260.59
2018-09-01T11:08:12.032Z,102267.75
2018-09-01T11:10:40.382Z,102263.09
2018-09-01T11:13:08.450Z,102264.97
2018-09-01T11:15:36.549Z,102266.73
2018-09-01T11:18:05.359Z,102263.28
2018-09-01T11:20:33.460Z,102257.95
2018-09-01T11:23:01.540Z,102248.79
2018-09-01T11:25:29.650Z,102255.92
2018-09-01T11:27:57.729Z,102263.76
2018-09-01T11:30:25.954Z,102258.73
2018-09-01T11:32:54.010Z,102258.91
2018-09-01T11:35:22.122Z,102255.62
2018-09-01T11:37:50.486Z,102256.34
2018-09-01T11:40:18.602Z,102255.84
2018-09-01T11:42:46.766Z,102262.29
2018-09-01T11:45:14.732Z,102256.08
2018-09-01T11:47:42.824Z,102256.50
2018-09-01T11:50:11.020Z,102253.95
2018-09-01T11:52:39.030Z,102246.30
2018-09-01T11:55:07.345Z,102255.84
2018-09-01T11:57:35.446Z,102248.77
2018-09-01T12:00:03.568Z,102246.05
2018-09-01T12:02:31.860Z,102244.00
2018-09-01T12:04:59.944Z,102240.65
2018-09-01T12:07:28.291Z,102245.77
2018-09-01T12:09:56.403Z,102247.38
2018-09-01T12:12:24.530Z,102246.11
2018-09-01T12:14:52.629Z,102240.43
2018-09-01T12:17:20.682Z,102249.90
2018-09-01T12:19:48.936Z,102248.78
2018-09-01T12:22:17.110Z,102242.05
2018-09-01T12:24:45.166Z,102249.05
2018-09-01T12:27:13.256Z,102236.78
2018-09-01T12:29:41.487Z,102237.98
2018-09-01T12:32:09.562Z,102243.21
2018-09-01T12:34:37.627Z,102246.64
2018-09-01T12:37:05.732Z,102240.88
2018-09-01T12:39:33.812Z,102243.05
2018-09-01T12:42:01.929Z,102238.88
2018-09-01T12:44:29.968Z,102243.23
2018-09-01T12:46:58.060Z,102230.57
2018-09-01T12:49:26.123Z,102232.86
2018-09-01T12:51:54.404Z,102230.55
2018-09-01T12:54:22.483Z,102230.27
2018-09-01T12:56:50.566Z,102231.95
2018-09-01T12:59:18.659Z,102224.58
2018-09-01T13:01:46.748Z,102226.83
2018-09-01T13:04:21.366Z,102224.88
2018-09-01T13:06:49.459Z,102219.52
2018-09-01T13:09:17.522Z,102218.72
2018-09-01T13:11:45.594Z,102214.14
2018-09-01T13:14:13.736Z,102209.70
2018-09-01T13:16:41.802Z,102213.09
2018-09-01T13:19:09.893Z,102212.41
2018-09-01T13:21:37.958Z,102219.59
2018-09-01T13:24:06.216Z,102219.42
2018-09-01T13:26:34.353Z,102220.52
2018-09-01T13:29:02.428Z,102210.28
2018-09-01T13:31:30.513Z,102210.31
2018-09-01T13:33:58.586Z,102209.34
2018-09-01T13:36:26.626Z,102211.71
2018-09-01T13:38:54.786Z,102212.34
2018-09-01T13:41:22.791Z,102215.24
2018-09-01T13:43:50.884Z,102217.16
2018-09-01T13:46:19.003Z,102218.84
2018-09-01T13:48:47.093Z,102209.61
2018-09-01T13:51:15.172Z,102208.47
2018-09-01T13:53:43.271Z,102203.08
2018-09-01T13:56:11.343Z,102203.73
2018-09-01T13:58:39.418Z,102211.11
2018-09-01T14:01:07.653Z,102219.13
2018-09-01T14:03:35.729Z,102211.70
2018-09-01T14:06:03.793Z,102214.21
2018-09-01T14:08:32.007Z,102211.92
2018-09-01T14:11:00.091Z,102210.80
2018-09-01T14:13:28.154Z,102202.41
2018-09-01T14:15:56.294Z,102206.45
2018-09-01T14:18:24.383Z,102206.81
2018-09-01T14:20:52.459Z,102207.30
2018-09-01T14:23:20.541Z,102210.52
2018-09-01T14:25:48.622Z,102207.03
2018-09-01T14:28:16.710Z,102213.25
2018-09-01T14:30:44.829Z,102210.38
2018-09-01T14:33:12.928Z,102206.25
2018-09-01T14:35:41.011Z,102206.23
2018-09-01T14:38:09.104Z,102203.30
2018-09-01T14:40:37.191Z,102198.92
2018-09-01T14:43:05.567Z,102193.59
2018-09-01T14:45:33.671Z,102188.96
2018-09-01T14:48:01.751Z,102191.38
2018-09-01T14:50:30.016Z,102190.95
2018-09-01T14:52:58.091Z,102184.84
2018-09-01T14:55:26.209Z,102179.79
2018-09-01T14:57:54.302Z,102186.12
2018-09-01T15:00:22.382Z,102189.69
2018-09-01T15:02:50.469Z,102181.27
2018-09-01T15:05:18.551Z,102188.92
2018-09-01T15:07:46.874Z,102184.93
2018-09-01T15:10:15.011Z,102180.47
2018-09-01T15:12:43.051Z,102182.77
2018-09-01T15:15:11.110Z,102178.16
2018-09-01T15:17:39.208Z,102184.73
2018-09-01T15:20:07.346Z,102187.13
2018-09-01T15:22:35.441Z,102183.20
2018-09-01T15:25:03.587Z,102178.81
2018-09-01T15:27:31.696Z,102174.82
2018-09-01T15:29:59.765Z,102177.44
2018-09-01T15:32:28.003Z,102178.59
2018-09-01T15:34:56.066Z,102182.22
2018-09-01T15:37:24.321Z,102182.09
2018-09-01T15:39:52.661Z,102181.53
2018-09-01T15:42:20.746Z,102183.13
2018-09-01T15:44:48.938Z,102178.73
2018-09-01T15:47:16.967Z,102184.39
2018-09-01T15:49:45.454Z,102178.22
2018-09-01T15:52:13.746Z,102183.06
2018-09-01T15:54:41.824Z,102186.14
2018-09-01T15:57:12.030Z,102185.19
2018-09-01T15:59:40.358Z,102183.30
2018-09-01T16:02:08.728Z,102188.21
2018-09-01T16:04:36.853Z,102180.30
2018-09-01T16:07:04.961Z,102183.23
2018-09-01T16:09:33.073Z,102187.70
2018-09-01T16:12:01.171Z,102184.34
2018-09-01T16:14:29.260Z,102190.13
2018-09-01T16:16:57.346Z,102181.50
2018-09-01T16:19:25.464Z,102184.22
2018-09-01T16:21:53.635Z,102183.52
2018-09-01T16:24:21.736Z,102186.03
2018-09-01T16:26:50.055Z,102175.77
2018-09-01T16:29:18.155Z,102172.63
2018-09-01T16:31:46.242Z,102177.52
2018-09-01T16:34:14.351Z,102178.03
2018-09-01T16:36:42.455Z,102176.19
2018-09-01T16:39:10.518Z,102179.22
2018-09-01T16:41:39.363Z,102172.01
2018-09-01T16:44:07.488Z,102174.52
2018-09-01T16:46:38.947Z,102176.61
2018-09-01T16:49:07.264Z,102181.51
2018-09-01T16:51:35.422Z,102178.77
2018-09-01T16:54:03.526Z,102183.00
2018-09-01T16:56:31.652Z,102185.57
2018-09-01T16:58:59.881Z,102181.33
2018-09-01T17:01:27.948Z,102182.91
2018-09-01T17:03:56.015Z,102192.94
2018-09-01T17:06:24.339Z,102187.69
2018-09-01T17:08:52.391Z,102191.95
2018-09-01T17:11:20.464Z,102189.73
2018-09-01T17:13:48.554Z,102183.80
2018-09-01T17:16:16.698Z,102190.19
2018-09-01T17:18:44.796Z,102189.87
2018-09-01T17:21:12.887Z,102189.11
2018-09-01T17:23:40.951Z,102182.37
2018-09-01T17:26:09.022Z,102184.12
2018-09-01T17:28:37.204Z,102189.63
2018-09-01T17:31:05.595Z,102188.78
2018-09-01T17:33:33.716Z,102191.75
2018-09-01T17:36:01.770Z,102195.16
2018-09-01T17:38:29.851Z,102195.80
2018-09-01T17:40:57.968Z,102193.38
2018-09-01T17:43:26.051Z,102194.36
2018-09-01T17:45:54.155Z,102192.11
2018-09-01T17:48:22.503Z,102192.72
2018-09-01T17:50:50.758Z,102190.44
2018-09-01T17:53:18.837Z,102192.64
2018-09-01T17:55:47.455Z,102195.05
2018-09-01T17:58:15.798Z,102185.28
2018-09-01T18:00:44.131Z,102192.09
2018-09-01T18:03:12.360Z,102197.01
2018-09-01T18:05:40.836Z,102199.81
2018-09-01T18:08:08.956Z,102197.88
2018-09-01T18:10:37.054Z,102205.71
2018-09-01T18:13:05.180Z,102201.73
2018-09-01T18:15:33.277Z,102200.89
2018-09-01T18:18:01.343Z,102204.88
2018-09-01T18:20:29.418Z,102208.86
2018-09-01T18:22:57.646Z,102204.86
2018-09-01T18:25:25.748Z,102202.21
2018-09-01T18:27:53.832Z,102210.50
2018-09-01T18:30:21.916Z,102208.42
2018-09-01T18:32:50.016Z,102211.28
2018-09-01T18:35:18.403Z,102210.55
2018-09-01T18:37:46.691Z,102220.66
2018-09-01T18:40:14.774Z,102221.95
2018-09-01T18:42:42.853Z,102230.47
2018-09-01T18:45:10.931Z,102230.32
2018-09-01T18:47:39.001Z,102229.33
2018-09-01T18:50:07.243Z,102235.67
2018-09-01T18:52:35.727Z,102235.77
2018-09-01T18:55:05.054Z,102238.37
2018-09-01T18:57:33.132Z,102231.13
2018-09-01T19:00:01.219Z,102226.98
2018-09-01T19:02:29.428Z,102234.51
2018-09-01T19:04:57.540Z,102231.11
2018-09-01T19:07:25.631Z,102234.58
2018-09-01T19:09:53.817Z,102237.66
2018-09-01T19:12:21.917Z,102244.20
2018-09-01T19:14:50.141Z,102241.91
2018-09-01T19:17:18.277Z,102245.08
2018-09-01T19:19:47.012Z,102243.10
2018-09-01T19:22:15.098Z,102252.55
2018-09-01T19:24:43.433Z,102259.86
2018-09-01T19:27:11.500Z,102258.02
2018-09-01T19:29:39.857Z,102256.75
2018-09-01T19:32:08.268Z,102258.65
2018-09-01T19:34:36.639Z,102260.86
2018-09-01T19:37:05.037Z,102259.88
2018-09-01T19:39:33.411Z,102258.56
2018-09-01T19:42:01.776Z,102264.89
2018-09-01T19:44:29.913Z,102263.91
2018-09-01T19:46:57.988Z,102267.05
2018-09-01T19:49:26.064Z,102272.28
2018-09-01T19:51:54.138Z,102269.12
2018-09-01T19:54:22.215Z,102262.36
2018-09-01T19:56:50.282Z,102266.73
2018-09-01T19:59:18.403Z,102265.24
2018-09-01T20:01:46.558Z,102259.80
2018-09-01T20:04:14.887Z,102261.88
2018-09-01T20:06:42.996Z,102266.98
2018-09-01T20:09:11.406Z,102269.84
2018-09-01T20:11:39.674Z,102269.29
2018-09-01T20:14:07.832Z,102266.48
2018-09-01T20:16:36.076Z,102262.75
2018-09-01T20:19:05.459Z,102265.78
2018-09-01T20:21:33.546Z,102265.15
2018-09-01T20:24:01.616Z,102268.36
2018-09-01T20:26:29.952Z,102266.58
2018-09-01T20:28:58.491Z,102266.02
2018-09-01T20:31:26.583Z,102273.57
2018-09-01T20:33:54.652Z,102268.95
2018-09-01T20:36:23.333Z,102280.13
2018-09-01T20:38:51.402Z,102277.14
2018-09-01T20:41:19.474Z,102277.92
2018-09-01T20:43:47.829Z,102272.83
2018-09-01T20:46:15.915Z,102281.30
2018-09-01T20:48:44.009Z,102279.27
2018-09-01T20:51:12.075Z,102278.98
2018-09-01T20:53:40.181Z,102283.40
2018-09-01T20:56:08.239Z,102287.66
2018-09-01T20:58:36.333Z,102284.34
2018-09-01T21:01:04.387Z,102283.53
2018-09-01T21:03:32.482Z,102284.73
2018-09-01T21:06:00.559Z,102290.95
2018-09-01T21:08:28.641Z,102287.57
2018-09-01T21:10:56.719Z,102289.81
2018-09-01T21:13:24.794Z,102292.36
2018-09-01T21:15:52.880Z,102296.02
2018-09-01T21:18:20.959Z,102292.28
2018-09-01T21:20:55.626Z,102289.36
2018-09-01T21:23:23.702Z,102296.40
2018-09-01T21:25:51.776Z,102293.51
2018-09-01T21:28:19.862Z,102295.95
2018-09-01T21:30:47.947Z,102295.77
2018-09-01T21:33:16.056Z,102291.35
2018-09-01T21:35:44.167Z,102291.33
2018-09-01T21:38:12.425Z,102293.31
2018-09-01T21:40:40.510Z,102294.34
2018-09-01T21:43:08.578Z,102297.99
2018-09-01T21:45:36.654Z,102298.19
2018-09-01T21:48:05.148Z,102297.80
2018-09-01T21:50:33.215Z,102304.02
2018-09-01T21:53:01.298Z,102306.88
2018-09-01T21:55:29.434Z,102305.77
2018-09-01T21:57:57.502Z,102302.94
2018-09-01T22:00:25.584Z,102303.50
2018-09-01T22:02:53.662Z,102309.69
2018-09-01T22:05:21.751Z,102307.61
2018-09-01T22:07:49.842Z,102309.95
2018-09-01T22:10:17.915Z,102308.73
2018-09-01T22:12:46.039Z,102310.23
2018-09-01T22:15:14.307Z,102309.09
2018-09-01T22:17:42.390Z,102302.61
2018-09-01T22:20:10.466Z,102300.08
2018-09-01T22:22:38.579Z,102307.58
2018-09-01T22:25:06.687Z,102301.95
2018-09-01T22:27:34.762Z,102301.66
2018-09-01T22:30:02.843Z,102296.09
2018-09-01T22:32:31.292Z,102306.81
2018-09-01T22:34:59.355Z,102306.61
2018-09-01T22:37:27.464Z,102301.70
2018-09-01T22:39:55.562Z,102301.41
2018-09-01T22:42:23.618Z,102307.13
2018-09-01T22:44:51.741Z,102301.50
2018-09-01T22:47:25.438Z,102306.77
2018-09-01T22:49:53.560Z,102306.00
2018-09-01T22:52:21.619Z,102306.16
2018-09-01T22:54:49.866Z,102301.09
2018-09-01T22:57:17.995Z,102304.55
2018-09-01T22:59:46.095Z,102301.65
2018-09-01T23:02:14.239Z,102304.73
2018-09-01T23:04:42.307Z,102306.97
2018-09-01T23:07:10.418Z,102298.88
2018-09-01T23:09:38.514Z,102298.98
2018-09-01T23:12:06.603Z,102299.16
2018-09-01T23:14:34.684Z,102294.46
2018-09-01T23:17:02.862Z,102296.33
2018-09-01T23:19:30.988Z,102288.23
2018-09-01T23:21:59.078Z,102293.56
2018-09-01T23:24:27.150Z,102287.54
2018-09-01T23:26:55.207Z,102291.58
2018-09-01T23:29:23.279Z,102293.84
2018-09-01T23:31:51.358Z,102285.26
2018-09-01T23:34:19.410Z,102284.44
2018-09-01T23:36:47.478Z,102283.18
2018-09-01T23:39:15.756Z,102282.91
2018-09-01T23:41:43.825Z,102279.52
2018-09-01T23:44:11.888Z,102280.13
2018-09-01T23:46:39.957Z,102282.03
2018-09-01T23:49:08.024Z,102283.41
2018-09-01T23:51:36.085Z,102274.73
2018-09-01T23:54:05.027Z,102278.65
2018-09-01T23:56:33.107Z,102280.61
2018-09-01T23:59:01.519Z,102283.30
